createdAt,value
2019-05-17T00:01:47.206Z,5.67
2019-05-17T00:04:16.770Z,3.70
2019-05-17T00:06:47.693Z,3.27
2019-05-17T00:09:17.665Z,2.93
2019-05-17T00:11:47.492Z,5.10
2019-05-17T00:14:16.939Z,4.53
2019-05-17T00:16:47.066Z,5.13
2019-05-17T00:19:17.123Z,4.03
2019-05-17T00:21:47.556Z,5.53
2019-05-17T00:24:18.252Z,4.33
2019-05-17T00:26:48.034Z,4.23
2019-05-17T00:29:17.480Z,3.87
2019-05-17T00:31:46.969Z,4.47
2019-05-17T00:34:16.900Z,4.03
2019-05-17T00:36:47.028Z,3.00
2019-05-17T00:39:16.833Z,4.47
2019-05-17T00:41:47.106Z,5.63
2019-05-17T00:44:17.007Z,3.40
2019-05-17T00:46:46.864Z,4.23
2019-05-17T00:49:17.181Z,3.70
2019-05-17T00:51:47.550Z,4.03
2019-05-17T00:54:17.566Z,5.40
2019-05-17T00:56:47.433Z,4.37
2019-05-17T00:59:17.240Z,8.47
2019-05-17T01:01:46.995Z,5.27
2019-05-17T01:04:17.354Z,5.17
2019-05-17T01:06:47.093Z,6.30
2019-05-17T01:09:17.117Z,3.67
2019-05-17T01:11:47.354Z,6.77
2019-05-17T01:14:17.693Z,3.37
2019-05-17T01:16:47.481Z,5.00
2019-05-17T01:19:17.247Z,3.03
2019-05-17T01:21:47.495Z,3.93
2019-05-17T01:24:17.567Z,4.73
2019-05-17T01:26:47.252Z,4.17
2019-05-17T01:29:17.471Z,3.93
2019-05-17T01:31:47.611Z,4.60
2019-05-17T01:34:17.181Z,2.13
2019-05-17T01:36:48.863Z,5.70
2019-05-17T01:39:21.319Z,6.67
2019-05-17T01:41:49.520Z,3.23
2019-05-17T01:44:18.994Z,5.17
2019-05-17T01:46:48.583Z,3.47
2019-05-17T01:49:18.093Z,2.87
2019-05-17T01:51:47.476Z,3.97
2019-05-17T01:54:17.604Z,4.53
2019-05-17T01:56:47.598Z,2.77
2019-05-17T01:59:17.414Z,4.23
2019-05-17T02:01:48.555Z,2.50
2019-05-17T02:04:17.978Z,4.60
2019-05-17T02:06:47.450Z,2.93
2019-05-17T02:09:33.419Z,4.60
2019-05-17T02:11:48.119Z,3.70
2019-05-17T02:14:17.501Z,2.50
2019-05-17T02:16:46.963Z,3.40
2019-05-17T02:19:17.450Z,3.07
2019-05-17T02:21:47.945Z,3.97
2019-05-17T02:24:17.447Z,3.37
2019-05-17T02:26:47.282Z,4.67
2019-05-17T02:29:16.794Z,7.57
2019-05-17T02:31:47.010Z,4.50
2019-05-17T02:34:16.489Z,4.23
2019-05-17T02:36:46.455Z,5.20
2019-05-17T02:39:15.902Z,5.67
2019-05-17T02:41:45.317Z,3.93
2019-05-17T02:44:16.644Z,3.83
2019-05-17T02:46:46.103Z,5.97
2019-05-17T02:49:15.624Z,3.13
2019-05-17T02:51:45.167Z,6.40
2019-05-17T02:54:14.776Z,3.83
2019-05-17T02:56:44.239Z,4.60
2019-05-17T02:59:13.849Z,3.57
2019-05-17T03:01:44.314Z,6.80
2019-05-17T03:04:14.081Z,4.87
2019-05-17T03:06:44.122Z,3.43
2019-05-17T03:09:13.755Z,3.83
2019-05-17T03:11:43.212Z,4.40
2019-05-17T03:14:13.113Z,2.77
2019-05-17T03:16:43.316Z,5.33
2019-05-17T03:19:13.321Z,4.60
2019-05-17T03:21:43.262Z,4.10
2019-05-17T03:24:13.622Z,2.67
2019-05-17T03:26:43.789Z,4.97
2019-05-17T03:29:13.815Z,6.13
2019-05-17T03:31:57.632Z,3.70
2019-05-17T03:34:18.317Z,3.70
2019-05-17T03:36:47.939Z,4.03
2019-05-17T03:39:17.575Z,4.10
2019-05-17T03:41:47.055Z,3.83
2019-05-17T03:44:16.455Z,7.77
2019-05-17T03:46:46.742Z,4.63
2019-05-17T03:49:16.397Z,4.13
2019-05-17T03:51:45.928Z,5.10
2019-05-17T03:54:15.460Z,5.97
2019-05-17T03:56:44.920Z,5.50
2019-05-17T03:59:14.393Z,7.00
2019-05-17T04:01:43.885Z,4.77
2019-05-17T04:04:13.651Z,4.67
2019-05-17T04:06:43.840Z,5.50
2019-05-17T04:09:14.166Z,5.37
2019-05-17T04:11:43.647Z,6.47
2019-05-17T04:14:13.905Z,3.90
2019-05-17T04:16:43.693Z,5.07
2019-05-17T04:19:13.972Z,4.37
2019-05-17T04:21:43.624Z,5.27
2019-05-17T04:24:13.145Z,6.33
2019-05-17T04:26:43.885Z,7.37
2019-05-17T04:29:13.959Z,6.93
2019-05-17T04:31:43.809Z,7.90
2019-05-17T04:34:13.838Z,6.60
2019-05-17T04:36:43.583Z,6.83
2019-05-17T04:39:13.708Z,6.20
2019-05-17T04:41:49.266Z,6.53
2019-05-17T04:44:14.769Z,9.40
2019-05-17T04:46:44.178Z,3.80
2019-05-17T04:49:14.049Z,5.90
2019-05-17T04:51:44.267Z,4.80
2019-05-17T04:54:14.155Z,4.87
2019-05-17T04:56:43.622Z,7.93
2019-05-17T04:59:13.989Z,4.87
2019-05-17T05:01:43.838Z,7.47
2019-05-17T05:04:15.548Z,6.30
2019-05-17T05:06:45.161Z,5.60
2019-05-17T05:09:14.551Z,7.00
2019-05-17T05:11:53.418Z,8.00
2019-05-17T05:14:15.047Z,4.83
2019-05-17T05:16:44.523Z,5.47
2019-05-17T05:19:14.089Z,4.70
2019-05-17T05:21:43.477Z,5.07
2019-05-17T05:24:12.922Z,8.23
2019-05-17T05:26:42.601Z,3.60
2019-05-17T05:29:12.863Z,4.57
2019-05-17T05:31:42.858Z,5.67
2019-05-17T05:34:12.531Z,7.27
2019-05-17T05:36:42.062Z,4.70
2019-05-17T05:39:11.734Z,7.23
2019-05-17T05:41:42.655Z,3.93
2019-05-17T05:44:12.444Z,7.47
2019-05-17T05:46:42.316Z,6.10
2019-05-17T05:49:12.511Z,3.97
2019-05-17T05:51:42.449Z,6.23
2019-05-17T05:54:12.523Z,2.93
2019-05-17T05:56:42.335Z,5.00
2019-05-17T05:59:12.213Z,7.43
2019-05-17T06:01:42.331Z,3.87
2019-05-17T06:04:11.929Z,4.70
2019-05-17T06:06:41.764Z,3.63
2019-05-17T06:09:12.175Z,5.60
2019-05-17T06:11:41.872Z,4.10
2019-05-17T06:14:12.202Z,6.23
2019-05-17T06:16:42.535Z,4.77
2019-05-17T06:19:12.318Z,6.17
2019-05-17T06:21:42.726Z,5.43
2019-05-17T06:24:12.208Z,6.60
2019-05-17T06:26:42.135Z,6.07
2019-05-17T06:29:11.940Z,7.47
2019-05-17T06:31:43.320Z,9.07
2019-05-17T06:34:13.218Z,5.23
2019-05-17T06:36:42.646Z,5.27
2019-05-17T06:39:12.078Z,7.63
2019-05-17T06:41:42.067Z,9.53
2019-05-17T06:44:12.242Z,6.93
2019-05-17T06:46:42.090Z,10.47
2019-05-17T06:49:11.925Z,6.03
2019-05-17T06:51:42.644Z,11.90
2019-05-17T06:54:12.245Z,5.33
2019-05-17T06:56:41.983Z,5.50
2019-05-17T06:59:11.655Z,6.13
2019-05-17T07:01:41.173Z,9.13
2019-05-17T07:04:10.574Z,7.10
2019-05-17T07:06:40.557Z,10.00
2019-05-17T07:09:10.285Z,9.00
2019-05-17T07:11:40.006Z,11.27
2019-05-17T07:14:09.584Z,8.60
2019-05-17T07:16:39.695Z,6.90
2019-05-17T07:19:10.287Z,7.33
2019-05-17T07:21:40.505Z,9.23
2019-05-17T07:24:10.241Z,5.93
2019-05-17T07:26:39.651Z,8.17
2019-05-17T07:29:10.092Z,7.33
2019-05-17T07:31:40.483Z,10.37
2019-05-17T07:34:10.240Z,11.80
2019-05-17T07:36:39.886Z,6.10
2019-05-17T07:39:10.875Z,10.23
2019-05-17T07:41:40.496Z,7.77
2019-05-17T07:44:10.124Z,9.83
2019-05-17T07:46:40.223Z,11.93
2019-05-17T07:49:10.794Z,12.20
2019-05-17T07:51:40.391Z,10.70
2019-05-17T07:54:10.440Z,10.27
2019-05-17T07:56:40.352Z,8.77
2019-05-17T07:59:09.730Z,11.03
2019-05-17T08:01:41.225Z,10.20
2019-05-17T08:04:11.352Z,11.07
2019-05-17T08:06:40.785Z,10.03
2019-05-17T08:09:13.983Z,13.13
2019-05-17T08:11:41.485Z,11.07
2019-05-17T08:14:10.864Z,12.57
2019-05-17T08:16:40.357Z,11.23
2019-05-17T08:19:09.999Z,16.03
2019-05-17T08:21:39.913Z,9.07
2019-05-17T08:24:10.509Z,10.70
2019-05-17T08:26:40.508Z,15.00
2019-05-17T08:29:10.199Z,12.30
2019-05-17T08:31:40.428Z,9.20
2019-05-17T08:34:10.480Z,8.90
2019-05-17T08:36:40.645Z,7.83
2019-05-17T08:39:10.497Z,6.90
2019-05-17T08:41:40.536Z,11.60
2019-05-17T08:44:10.411Z,7.93
2019-05-17T08:46:40.150Z,7.53
2019-05-17T08:49:09.900Z,6.10
2019-05-17T08:51:39.822Z,8.73
2019-05-17T08:54:10.457Z,7.67
2019-05-17T08:56:40.472Z,7.70
2019-05-17T08:59:10.019Z,8.27
2019-05-17T09:01:41.701Z,10.83
2019-05-17T09:04:12.159Z,9.03
2019-05-17T09:06:41.612Z,8.17
2019-05-17T09:09:11.045Z,14.70
2019-05-17T09:11:40.450Z,10.90
2019-05-17T09:14:10.571Z,9.30
2019-05-17T09:16:40.411Z,7.80
2019-05-17T09:19:10.197Z,9.63
2019-05-17T09:21:39.982Z,10.13
2019-05-17T09:24:10.436Z,8.70
2019-05-17T09:26:40.190Z,12.17
2019-05-17T09:29:10.783Z,8.67
2019-05-17T09:31:41.290Z,8.30
2019-05-17T09:34:11.138Z,9.87
2019-05-17T09:36:41.022Z,10.87
2019-05-17T09:39:14.415Z,9.10
2019-05-17T09:41:55.854Z,11.47
2019-05-17T09:44:26.265Z,12.30
2019-05-17T09:47:10.202Z,9.60
2019-05-17T09:49:52.883Z,14.07
2019-05-17T09:52:22.434Z,13.43
2019-05-17T09:54:52.200Z,13.03
2019-05-17T09:57:21.770Z,9.47
2019-05-17T09:59:52.106Z,7.33
2019-05-17T10:02:21.804Z,10.83
2019-05-17T10:04:51.652Z,9.90
2019-05-17T10:07:22.777Z,10.37
2019-05-17T10:09:59.774Z,9.63
2019-05-17T10:12:29.518Z,7.90
2019-05-17T10:15:03.373Z,11.10
2019-05-17T10:20:10.829Z,10.40
2019-05-17T10:22:40.455Z,10.53
2019-05-17T10:25:12.505Z,7.83
2019-05-17T10:27:42.697Z,10.47
2019-05-17T10:30:12.550Z,13.90
2019-05-17T10:32:43.252Z,8.33
2019-05-17T10:35:13.054Z,6.80
2019-05-17T10:37:44.948Z,10.40
2019-05-17T10:40:20.938Z,6.80
2019-05-17T10:45:30.833Z,7.90
2019-05-17T10:48:00.873Z,8.27
2019-05-17T10:50:35.553Z,7.93
2019-05-17T10:53:22.781Z,9.47
2019-05-17T10:55:51.499Z,7.83
2019-05-17T10:58:22.888Z,9.17
2019-05-17T11:00:53.270Z,7.50
2019-05-17T11:05:59.931Z,7.10
2019-05-17T11:08:41.207Z,7.07
2019-05-17T11:11:10.828Z,9.57
2019-05-17T11:13:40.303Z,7.70
2019-05-17T11:16:09.876Z,8.13
2019-05-17T11:18:40.585Z,10.77
2019-05-17T11:21:11.366Z,7.23
2019-05-17T11:23:41.995Z,8.07
2019-05-17T11:26:13.617Z,8.37
2019-05-17T11:28:45.948Z,7.57
2019-05-17T11:31:40.582Z,7.53
2019-05-17T11:34:12.939Z,8.10
2019-05-17T11:36:42.439Z,7.10
2019-05-17T11:39:16.922Z,8.17
2019-05-17T11:41:46.894Z,8.47
2019-05-17T11:44:29.988Z,8.27
2019-05-17T11:47:15.779Z,6.10
2019-05-17T11:49:45.684Z,8.13
2019-05-17T11:52:15.410Z,10.40
2019-05-17T11:54:45.906Z,8.87
2019-05-17T11:57:18.442Z,6.50
2019-05-17T11:59:48.927Z,8.90
2019-05-17T12:02:21.471Z,16.63
2019-05-17T12:04:54.674Z,13.70
2019-05-17T12:07:27.907Z,7.73
2019-05-17T12:09:57.887Z,10.13
2019-05-17T12:12:27.493Z,9.60
2019-05-17T12:14:57.306Z,9.37
2019-05-17T12:17:26.972Z,7.23
2019-05-17T12:19:56.510Z,9.20
2019-05-17T12:22:27.818Z,10.20
2019-05-17T12:24:57.247Z,6.97
2019-05-17T12:27:26.808Z,8.53
2019-05-17T12:29:56.384Z,9.30
2019-05-17T12:32:26.433Z,9.30
2019-05-17T12:34:55.955Z,9.07
2019-05-17T12:37:25.596Z,8.27
2019-05-17T12:39:55.255Z,4.77
2019-05-17T12:42:24.885Z,7.17
2019-05-17T12:44:54.533Z,5.47
2019-05-17T12:47:23.982Z,7.47
2019-05-17T12:49:53.471Z,6.67
2019-05-17T12:52:23.085Z,8.57
2019-05-17T12:54:53.175Z,5.70
2019-05-17T12:57:23.016Z,4.43
2019-05-17T12:59:59.037Z,8.97
2019-05-17T13:02:28.589Z,7.07
2019-05-17T13:05:02.809Z,8.37
2019-05-17T13:07:32.434Z,8.97
2019-05-17T13:10:02.154Z,8.47
2019-05-17T13:12:31.950Z,9.23
2019-05-17T13:15:02.050Z,7.23
2019-05-17T13:17:33.665Z,8.57
2019-05-17T13:20:03.944Z,5.07
2019-05-17T13:22:35.396Z,10.50
2019-05-17T13:25:05.964Z,7.20
2019-05-17T13:27:41.888Z,8.00
2019-05-17T13:30:12.836Z,6.57
2019-05-17T13:32:42.721Z,6.57
2019-05-17T13:35:12.508Z,8.63
2019-05-17T13:37:42.358Z,6.43
2019-05-17T13:40:19.663Z,7.00
2019-05-17T13:42:49.719Z,6.50
2019-05-17T13:45:28.879Z,10.93
2019-05-17T13:47:59.311Z,8.30
2019-05-17T13:50:29.199Z,9.27
2019-05-17T13:53:00.270Z,10.23
2019-05-17T13:55:29.854Z,8.93
2019-05-17T13:58:00.603Z,10.47
2019-05-17T14:00:44.836Z,9.17
2019-05-17T14:06:04.261Z,9.00
2019-05-17T14:08:33.820Z,8.80
2019-05-17T14:11:03.716Z,10.10
2019-05-17T14:13:46.369Z,7.93
2019-05-17T14:16:17.992Z,9.50
2019-05-17T14:18:52.072Z,10.43
2019-05-17T14:21:24.694Z,9.40
2019-05-17T14:23:56.708Z,12.43
2019-05-17T14:26:29.458Z,11.00
2019-05-17T14:28:59.513Z,11.70
2019-05-17T14:31:29.657Z,13.27
2019-05-17T14:33:59.161Z,8.50
2019-05-17T14:36:28.689Z,9.60
2019-05-17T14:38:58.551Z,11.37
2019-05-17T14:41:28.231Z,11.47
2019-05-17T14:43:57.808Z,10.70
2019-05-17T14:46:27.439Z,13.90
2019-05-17T14:49:00.530Z,10.97
2019-05-17T14:51:30.230Z,7.37
2019-05-17T14:53:59.936Z,12.17
2019-05-17T14:56:39.390Z,10.00
2019-05-17T14:59:09.531Z,14.23
2019-05-17T15:01:45.675Z,9.23
2019-05-17T15:04:20.139Z,7.43
2019-05-17T15:06:50.075Z,10.20
2019-05-17T15:09:57.823Z,9.83
2019-05-17T15:12:28.921Z,7.90
2019-05-17T15:14:58.526Z,8.03
2019-05-17T15:17:35.321Z,8.70
2019-05-17T15:20:05.499Z,11.07
2019-05-17T15:28:14.355Z,9.43
2019-05-17T15:30:54.247Z,9.50
2019-05-17T15:33:33.570Z,8.90
2019-05-17T15:36:05.011Z,7.97
2019-05-17T15:38:39.867Z,8.37
2019-05-17T15:41:11.689Z,11.70
2019-05-17T15:43:44.009Z,9.37
2019-05-17T15:46:19.857Z,8.50
2019-05-17T15:48:52.252Z,9.77
2019-05-17T15:51:22.272Z,10.57
2019-05-17T15:54:02.318Z,10.03
2019-05-17T15:56:34.255Z,12.27
2019-05-17T15:59:04.277Z,9.67
2019-05-17T16:02:12.147Z,10.77
2019-05-17T16:04:42.431Z,8.87
2019-05-17T16:07:18.154Z,8.47
2019-05-17T16:09:48.430Z,9.03
2019-05-17T16:12:20.419Z,9.93
2019-05-17T16:14:50.287Z,13.53
2019-05-17T16:17:23.098Z,8.40
2019-05-17T16:19:55.681Z,8.97
2019-05-17T16:25:18.363Z,8.23
2019-05-17T16:28:46.059Z,7.70
2019-05-17T16:31:17.988Z,10.33
2019-05-17T16:33:50.765Z,9.77
2019-05-17T16:36:18.888Z,13.17
2019-05-17T16:38:48.572Z,6.97
2019-05-17T16:41:20.865Z,13.13
2019-05-17T16:43:56.288Z,9.50
2019-05-17T16:46:26.161Z,8.80
2019-05-17T16:49:20.244Z,7.67
2019-05-17T17:16:46.314Z,8.57
2019-05-17T17:28:43.739Z,8.53
2019-05-17T17:33:59.492Z,13.57
2019-05-17T17:36:51.887Z,11.20
2019-05-17T17:39:23.095Z,7.03
2019-05-17T17:42:13.393Z,8.90
2019-05-17T17:44:48.322Z,7.63
2019-05-17T17:47:23.083Z,10.57
2019-05-17T17:50:47.461Z,10.53
2019-05-17T17:53:44.207Z,12.27
2019-05-17T18:01:55.219Z,7.13
2019-05-17T18:04:27.887Z,9.70
2019-05-17T18:06:59.577Z,7.03
2019-05-17T18:09:30.986Z,10.63
2019-05-17T18:12:02.466Z,7.97
2019-05-17T18:14:41.258Z,8.37
2019-05-17T18:17:11.877Z,7.77
2019-05-17T18:19:44.492Z,10.67
2019-05-17T18:22:15.804Z,6.60
2019-05-17T18:24:45.627Z,8.50
2019-05-17T18:27:19.018Z,12.93
2019-05-17T18:29:52.501Z,9.73
2019-05-17T18:32:24.785Z,6.37
2019-05-17T18:35:16.341Z,7.83
2019-05-17T18:37:48.503Z,7.57
2019-05-17T18:40:21.333Z,7.13
2019-05-17T18:42:55.704Z,9.80
2019-05-17T18:48:03.419Z,9.47
2019-05-17T18:50:36.845Z,8.23
2019-05-17T18:53:38.375Z,8.50
2019-05-17T18:59:32.206Z,8.67
2019-05-17T19:02:25.550Z,11.37
2019-05-17T19:05:23.668Z,9.43
2019-05-17T19:11:13.268Z,12.87
2019-05-17T19:14:03.884Z,11.63
2019-05-17T19:16:34.319Z,7.93
2019-05-17T19:19:05.994Z,9.97
2019-05-17T19:21:42.782Z,15.40
2019-05-17T19:24:13.887Z,10.00
2019-05-17T19:26:44.285Z,11.40
2019-05-17T19:29:17.327Z,7.40
2019-05-17T19:32:03.206Z,9.03
2019-05-17T19:37:36.441Z,8.23
2019-05-17T19:40:07.524Z,10.27
2019-05-17T19:42:37.169Z,8.50
2019-05-17T19:45:07.796Z,6.93
2019-05-17T19:47:37.547Z,9.83
2019-05-17T19:50:09.568Z,5.83
2019-05-17T19:52:44.514Z,9.33
2019-05-17T19:55:14.407Z,7.67
2019-05-17T19:57:44.041Z,7.60
2019-05-17T20:00:13.713Z,7.53
2019-05-17T20:02:43.268Z,6.17
2019-05-17T20:05:15.611Z,11.27
2019-05-17T20:07:45.953Z,9.20
2019-05-17T20:10:17.805Z,10.27
2019-05-17T20:12:48.438Z,10.80
2019-05-17T20:15:19.765Z,11.13
2019-05-17T20:17:51.797Z,11.00
2019-05-17T20:20:21.937Z,8.63
2019-05-17T20:22:52.658Z,8.43
2019-05-17T20:25:22.379Z,8.57
2019-05-17T20:27:53.552Z,9.97
2019-05-17T20:30:23.247Z,7.93
2019-05-17T20:32:53.971Z,7.70
2019-05-17T20:35:25.481Z,9.40
2019-05-17T20:37:56.081Z,7.70
2019-05-17T20:40:27.627Z,9.90
2019-05-17T20:42:59.326Z,8.93
2019-05-17T20:45:33.855Z,8.33
2019-05-17T20:48:06.395Z,10.23
2019-05-17T20:50:38.674Z,11.70
2019-05-17T20:53:18.410Z,7.87
2019-05-17T20:55:42.933Z,9.50
2019-05-17T20:58:12.693Z,7.50
2019-05-17T21:00:42.825Z,10.17
2019-05-17T21:03:13.939Z,8.33
2019-05-17T21:05:46.886Z,8.27
2019-05-17T21:08:16.538Z,9.67
2019-05-17T21:10:46.486Z,7.33
2019-05-17T21:13:17.142Z,11.13
2019-05-17T21:15:48.161Z,10.13
2019-05-17T21:18:18.186Z,8.87
2019-05-17T21:20:49.051Z,9.03
2019-05-17T21:23:18.698Z,8.63
2019-05-17T21:25:48.257Z,11.30
2019-05-17T21:28:18.383Z,10.00
2019-05-17T21:30:48.056Z,10.43
2019-05-17T21:33:17.705Z,8.73
2019-05-17T21:35:52.608Z,9.03
2019-05-17T21:38:23.054Z,8.00
2019-05-17T21:40:52.991Z,9.70
2019-05-17T21:43:26.453Z,9.50
2019-05-17T21:46:03.991Z,9.77
2019-05-17T21:48:32.939Z,9.77
2019-05-17T21:51:02.452Z,13.27
2019-05-17T21:53:31.936Z,9.47
2019-05-17T21:56:03.639Z,9.27
2019-05-17T21:58:33.067Z,9.97
2019-05-17T22:01:17.601Z,9.90
2019-05-17T22:03:47.562Z,10.57
2019-05-17T22:06:17.717Z,8.47
2019-05-17T22:08:47.312Z,10.60
2019-05-17T22:11:17.275Z,11.83
2019-05-17T22:13:46.795Z,10.27
2019-05-17T22:16:19.633Z,9.07
2019-05-17T22:18:49.879Z,9.53
2019-05-17T22:21:19.265Z,9.93
2019-05-17T22:23:49.299Z,10.07
2019-05-17T22:26:18.849Z,11.97
2019-05-17T22:28:48.216Z,8.60
2019-05-17T22:31:17.642Z,10.30
2019-05-17T22:33:47.099Z,12.93
2019-05-17T22:36:16.461Z,10.07
2019-05-17T22:38:48.222Z,11.23
2019-05-17T22:41:18.533Z,9.17
2019-05-17T22:43:48.017Z,11.50
2019-05-17T22:46:17.464Z,8.10
2019-05-17T22:48:47.089Z,14.07
2019-05-17T22:51:18.136Z,11.80
2019-05-17T22:53:47.701Z,11.57
2019-05-17T22:56:17.208Z,11.83
2019-05-17T22:58:47.118Z,12.57
2019-05-17T23:01:18.275Z,9.43
2019-05-17T23:03:47.695Z,9.83
2019-05-17T23:06:18.368Z,10.97
2019-05-17T23:08:48.141Z,8.13
2019-05-17T23:11:17.672Z,10.70
2019-05-17T23:13:47.221Z,12.27
2019-05-17T23:16:17.813Z,11.43
2019-05-17T23:19:05.474Z,11.63
2019-05-17T23:21:35.571Z,9.50
2019-05-17T23:24:05.666Z,12.93
2019-05-17T23:26:35.060Z,9.47
2019-05-17T23:29:05.432Z,15.03
2019-05-17T23:31:35.226Z,10.97
2019-05-17T23:34:07.180Z,9.60
2019-05-17T23:36:39.856Z,15.53
2019-05-17T23:39:09.604Z,13.20
2019-05-17T23:41:39.590Z,9.87
2019-05-17T23:44:10.244Z,10.83
2019-05-17T23:46:42.020Z,9.37
2019-05-17T23:49:11.694Z,11.17
2019-05-17T23:51:41.220Z,13.57
2019-05-17T23:54:13.303Z,11.03
2019-05-17T23:56:44.151Z,9.30
2019-05-17T23:59:15.534Z,9.23
